Time,TemperatureF,DewpointF,PressureIn,WindDirection,WindDirectionDegrees,WindSpeedMPH,WindSpeedGustMPH,Humidity,HourlyPrecipIn,Conditions,Clouds,dailyrainin,SoftwareType,DateUTC
2013-04-27 00:04:00,49.9,47.0,30.32,North,0,0.0,0.0,90,0.00,,,0.00,WUHU216HW,2013-04-27 07:04:00,
2013-04-27 00:09:00,49.9,47.0,30.31,North,0,0.0,0.0,90,0.00,,,0.00,WUHU216HW,2013-04-27 07:09:00,
2013-04-27 00:14:00,49.7,46.8,30.31,North,0,0.0,0.0,90,0.00,,,0.00,WUHU216HW,2013-04-27 07:14:00,
2013-04-27 00:19:00,49.7,46.5,30.31,North,0,0.0,0.0,89,0.00,,,0.00,WUHU216HW,2013-04-27 07:19:00,
2013-04-27 00:24:00,49.7,46.5,30.32,North,0,0.0,0.0,89,0.00,,,0.00,WUHU216HW,2013-04-27 07:24:00,
2013-04-27 00:29:00,49.5,46.4,30.31,North,0,0.0,0.0,89,0.00,,,0.00,WUHU216HW,2013-04-27 07:29:00,
2013-04-27 00:34:00,49.5,46.4,30.32,North,0,0.0,0.0,89,0.00,,,0.00,WUHU216HW,2013-04-27 07:34:00,
2013-04-27 00:39:00,49.3,46.2,30.32,North,0,0.0,0.0,89,0.00,,,0.00,WUHU216HW,2013-04-27 07:39:00,
2013-04-27 00:44:00,49.3,46.2,30.32,North,0,0.0,0.0,89,0.00,,,0.00,WUHU216HW,2013-04-27 07:44:00,
2013-04-27 00:49:00,49.1,46.1,30.32,North,0,0.0,0.0,89,0.00,,,0.00,WUHU216HW,2013-04-27 07:49:00,
2013-04-27 00:54:00,49.0,45.9,30.32,North,0,0.0,0.0,89,0.00,,,0.00,WUHU216HW,2013-04-27 07:54:00,
2013-04-27 00:59:00,49.0,45.9,30.32,North,0,0.0,0.0,89,0.00,,,0.00,WUHU216HW,2013-04-27 07:59:00,
2013-04-27 01:04:00,49.1,46.1,30.32,North,0,0.0,0.0,89,0.00,,,0.00,WUHU216HW,2013-04-27 08:04:00,
2013-04-27 01:09:00,49.1,46.4,30.32,North,0,0.0,0.0,90,0.00,,,0.00,WUHU216HW,2013-04-27 08:09:00,
2013-04-27 01:14:00,49.3,46.8,30.32,North,0,0.0,0.0,91,0.00,,,0.00,WUHU216HW,2013-04-27 08:14:00,
2013-04-27 01:19:00,49.3,46.8,30.32,North,0,0.0,0.0,91,0.00,,,0.00,WUHU216HW,2013-04-27 08:19:00,
2013-04-27 01:24:00,49.3,46.8,30.31,North,0,0.0,0.0,91,0.00,,,0.00,WUHU216HW,2013-04-27 08:24:00,
2013-04-27 01:29:00,49.3,46.8,30.31,North,0,0.0,0.0,91,0.00,,,0.00,WUHU216HW,2013-04-27 08:29:00,
2013-04-27 01:34:00,49.3,46.8,30.31,North,0,0.0,0.0,91,0.00,,,0.00,WUHU216HW,2013-04-27 08:34:00,
2013-04-27 01:39:00,49.3,46.8,30.31,North,0,0.0,0.0,91,0.00,,,0.00,WUHU216HW,2013-04-27 08:39:00,
2013-04-27 01:44:00,49.3,46.8,30.31,North,0,0.0,0.0,91,0.00,,,0.00,WUHU216HW,2013-04-27 08:44:00,
2013-04-27 01:49:00,49.3,46.8,30.31,North,0,0.0,0.0,91,0.00,,,0.00,WUHU216HW,2013-04-27 08:49:00,
2013-04-27 01:54:00,49.3,46.8,30.31,North,0,0.0,0.0,91,0.00,,,0.00,WUHU216HW,2013-04-27 08:54:00,
2013-04-27 01:59:00,49.1,46.6,30.31,North,0,0.0,0.0,91,0.00,,,0.00,WUHU216HW,2013-04-27 08:59:00,
2013-04-27 02:04:00,49.1,46.6,30.31,North,0,0.0,0.0,91,0.00,,,0.00,WUHU216HW,2013-04-27 09:04:00,
2013-04-27 02:09:00,49.1,46.6,30.31,North,0,0.0,0.0,91,0.00,,,0.00,WUHU216HW,2013-04-27 09:09:00,
2013-04-27 02:14:00,49.0,46.4,30.31,North,0,0.0,0.0,91,0.00,,,0.00,WUHU216HW,2013-04-27 09:14:00,
2013-04-27 02:19:00,49.0,46.4,30.30,North,0,0.0,0.0,91,0.00,,,0.00,WUHU216HW,2013-04-27 09:19:00,
2013-04-27 02:24:00,49.0,46.4,30.30,North,0,0.0,0.0,91,0.00,,,0.00,WUHU216HW,2013-04-27 09:24:00,
2013-04-27 02:29:00,49.0,46.4,30.30,North,0,0.0,0.0,91,0.00,,,0.00,WUHU216HW,2013-04-27 09:29:00,
2013-04-27 02:34:00,49.0,46.4,30.30,North,0,0.0,0.0,91,0.00,,,0.00,WUHU216HW,2013-04-27 09:34:00,
2013-04-27 02:39:00,49.0,46.4,30.30,North,0,0.0,0.0,91,0.00,,,0.00,WUHU216HW,2013-04-27 09:39:00,
2013-04-27 02:44:00,49.0,46.4,30.30,North,0,0.0,0.0,91,0.00,,,0.00,WUHU216HW,2013-04-27 09:44:00,
2013-04-27 02:49:00,49.0,46.4,30.30,North,0,0.0,0.0,91,0.00,,,0.00,WUHU216HW,2013-04-27 09:49:00,
2013-04-27 02:54:00,49.0,46.4,30.30,North,0,0.0,0.0,91,0.00,,,0.00,WUHU216HW,2013-04-27 09:54:00,
2013-04-27 02:59:00,49.0,46.4,30.30,North,0,0.0,0.0,91,0.00,,,0.00,WUHU216HW,2013-04-27 09:59:00,
2013-04-27 03:04:00,49.0,46.4,30.30,North,0,0.0,0.0,91,0.00,,,0.00,WUHU216HW,2013-04-27 10:04:00,
2013-04-27 03:09:00,49.0,46.4,30.30,North,0,0.0,0.0,91,0.00,,,0.00,WUHU216HW,2013-04-27 10:09:00,
2013-04-27 03:14:00,49.0,46.4,30.30,North,0,0.0,0.0,91,0.00,,,0.00,WUHU216HW,2013-04-27 10:14:00,
2013-04-27 03:19:00,49.0,46.4,30.30,North,0,0.0,0.0,91,0.00,,,0.00,WUHU216HW,2013-04-27 10:19:00,
2013-04-27 03:24:00,49.0,46.4,30.30,North,0,0.0,0.0,91,0.00,,,0.00,WUHU216HW,2013-04-27 10:24:00,
2013-04-27 03:29:00,49.0,46.4,30.30,North,0,0.0,0.0,91,0.00,,,0.00,WUHU216HW,2013-04-27 10:29:00,
2013-04-27 03:34:00,49.0,46.4,30.30,North,0,0.0,0.0,91,0.00,,,0.00,WUHU216HW,2013-04-27 10:34:00,
2013-04-27 03:39:00,49.1,46.6,30.30,North,0,0.0,0.0,91,0.00,,,0.00,WUHU216HW,2013-04-27 10:39:00,
2013-04-27 03:44:00,49.1,46.6,30.30,North,0,0.0,0.0,91,0.00,,,0.00,WUHU216HW,2013-04-27 10:44:00,
2013-04-27 03:49:00,49.1,46.6,30.30,North,0,0.0,0.0,91,0.00,,,0.00,WUHU216HW,2013-04-27 10:49:00,
2013-04-27 03:54:00,49.0,46.4,30.30,North,0,0.0,0.0,91,0.00,,,0.00,WUHU216HW,2013-04-27 10:54:00,
2013-04-27 03:59:00,49.0,46.4,30.30,North,0,0.0,0.0,91,0.00,,,0.00,WUHU216HW,2013-04-27 10:59:00,
2013-04-27 04:04:00,49.0,46.4,30.30,North,0,0.0,0.0,91,0.00,,,0.00,WUHU216HW,2013-04-27 11:04:00,
2013-04-27 04:09:00,49.0,46.4,30.30,North,0,0.0,0.0,91,0.00,,,0.00,WUHU216HW,2013-04-27 11:09:00,
2013-04-27 04:14:00,49.0,46.4,30.30,North,0,0.0,0.0,91,0.00,,,0.00,WUHU216HW,2013-04-27 11:14:00,
2013-04-27 04:19:00,49.0,46.4,30.30,North,0,0.0,0.0,91,0.00,,,0.00,WUHU216HW,2013-04-27 11:19:00,
2013-04-27 04:24:00,49.0,46.4,30.30,North,0,0.0,0.0,91,0.00,,,0.00,WUHU216HW,2013-04-27 11:24:00,
2013-04-27 04:29:00,49.0,46.4,30.29,North,0,0.0,0.0,91,0.00,,,0.00,WUHU216HW,2013-04-27 11:29:00,
2013-04-27 04:34:00,49.0,46.4,30.29,North,0,0.0,0.0,91,0.00,,,0.00,WUHU216HW,2013-04-27 11:34:00,
2013-04-27 04:39:00,49.0,46.4,30.29,North,0,0.0,0.0,91,0.00,,,0.00,WUHU216HW,2013-04-27 11:39:00,
2013-04-27 04:44:00,49.0,46.4,30.29,North,0,0.0,0.0,91,0.00,,,0.00,WUHU216HW,2013-04-27 11:44:00,
2013-04-27 04:49:00,49.0,46.4,30.29,North,0,0.0,0.0,91,0.00,,,0.00,WUHU216HW,2013-04-27 11:49:00,
2013-04-27 04:54:00,49.0,46.4,30.29,North,0,0.0,0.0,91,0.00,,,0.00,WUHU216HW,2013-04-27 11:54:00,
2013-04-27 04:59:00,49.0,46.4,30.29,North,0,0.0,0.0,91,0.00,,,0.00,WUHU216HW,2013-04-27 11:59:00,
2013-04-27 05:04:00,49.1,46.6,30.29,North,0,0.0,0.0,91,0.00,,,0.00,WUHU216HW,2013-04-27 12:04:00,
2013-04-27 05:09:00,49.0,46.4,30.29,North,0,0.0,0.0,91,0.00,,,0.00,WUHU216HW,2013-04-27 12:09:00,
2013-04-27 05:14:00,49.0,46.4,30.29,North,0,0.0,0.0,91,0.00,,,0.00,WUHU216HW,2013-04-27 12:14:00,
2013-04-27 05:19:00,49.1,46.6,30.29,North,0,0.0,0.0,91,0.00,,,0.00,WUHU216HW,2013-04-27 12:19:00,
2013-04-27 05:24:00,49.1,46.6,30.29,North,0,0.0,0.0,91,0.00,,,0.00,WUHU216HW,2013-04-27 12:24:00,
2013-04-27 05:29:00,49.1,46.6,30.29,North,0,0.0,0.0,91,0.00,,,0.00,WUHU216HW,2013-04-27 12:29:00,
2013-04-27 05:34:00,49.1,46.6,30.29,North,0,0.0,0.0,91,0.00,,,0.00,WUHU216HW,2013-04-27 12:34:00,
2013-04-27 05:39:00,49.3,46.8,30.29,North,0,0.0,0.0,91,0.00,,,0.00,WUHU216HW,2013-04-27 12:39:00,
2013-04-27 05:44:00,49.3,46.8,30.29,North,0,0.0,0.0,91,0.00,,,0.00,WUHU216HW,2013-04-27 12:44:00,
2013-04-27 05:49:00,49.3,46.8,30.29,North,0,0.0,0.0,91,0.00,,,0.00,WUHU216HW,2013-04-27 12:49:00,
2013-04-27 05:54:00,49.3,46.8,30.29,North,0,0.0,0.0,91,0.00,,,0.00,WUHU216HW,2013-04-27 12:54:00,
2013-04-27 05:59:00,49.5,47.0,30.29,North,0,0.0,0.0,91,0.00,,,0.00,WUHU216HW,2013-04-27 12:59:00,
2013-04-27 06:04:00,49.5,47.0,30.29,North,0,0.0,0.0,91,0.00,,,0.00,WUHU216HW,2013-04-27 13:04:00,
2013-04-27 06:09:00,49.5,47.0,30.29,North,0,0.0,0.0,91,0.00,,,0.00,WUHU216HW,2013-04-27 13:09:00,
2013-04-27 06:14:00,49.7,47.2,30.29,North,0,0.0,0.0,91,0.00,,,0.00,WUHU216HW,2013-04-27 13:14:00,
2013-04-27 06:19:00,49.7,47.2,30.30,North,0,0.0,0.0,91,0.00,,,0.00,WUHU216HW,2013-04-27 13:19:00,
2013-04-27 06:24:00,49.7,47.2,30.29,North,0,0.0,0.0,91,0.00,,,0.00,WUHU216HW,2013-04-27 13:24:00,
2013-04-27 06:29:00,49.9,47.3,30.30,North,0,0.0,0.0,91,0.00,,,0.00,WUHU216HW,2013-04-27 13:29:00,
2013-04-27 06:34:00,50.0,47.4,30.30,North,0,0.0,0.0,91,0.00,,,0.00,WUHU216HW,2013-04-27 13:34:00,
2013-04-27 06:39:00,50.0,47.4,30.30,North,0,0.0,0.0,91,0.00,,,0.00,WUHU216HW,2013-04-27 13:39:00,
2013-04-27 06:48:00,50.0,47.4,30.30,North,0,0.0,0.0,91,0.00,,,0.00,WUHU216HW,2013-04-27 13:48:00,
2013-04-27 06:56:00,50.0,47.4,30.30,North,0,0.0,0.0,91,0.00,,,0.00,WUHU216HW,2013-04-27 13:56:00,
2013-04-27 07:01:00,50.2,47.6,30.30,North,0,0.0,0.0,91,0.00,,,0.00,WUHU216HW,2013-04-27 14:01:00,
2013-04-27 07:06:00,50.2,47.6,30.31,North,0,0.0,0.0,91,0.00,,,0.00,WUHU216HW,2013-04-27 14:06:00,
2013-04-27 07:11:00,50.4,47.8,30.31,North,0,0.0,0.0,91,0.00,,,0.00,WUHU216HW,2013-04-27 14:11:00,
2013-04-27 07:16:00,50.8,48.2,30.31,North,0,0.0,0.0,91,0.00,,,0.00,WUHU216HW,2013-04-27 14:16:00,
2013-04-27 07:21:00,50.8,48.2,30.31,North,0,0.0,0.0,91,0.00,,,0.00,WUHU216HW,2013-04-27 14:21:00,
2013-04-27 07:26:00,50.8,48.2,30.31,North,0,0.0,0.0,91,0.00,,,0.00,WUHU216HW,2013-04-27 14:26:00,
2013-04-27 07:31:00,51.1,48.5,30.31,North,0,0.0,0.0,91,0.00,,,0.00,WUHU216HW,2013-04-27 14:31:00,
2013-04-27 07:36:00,51.1,48.5,30.31,North,0,0.0,0.0,91,0.00,,,0.00,WUHU216HW,2013-04-27 14:36:00,
2013-04-27 07:41:00,51.1,48.2,30.31,North,0,0.0,0.0,90,0.00,,,0.00,WUHU216HW,2013-04-27 14:41:00,
2013-04-27 07:46:00,51.1,48.2,30.31,North,0,0.0,0.0,90,0.00,,,0.00,WUHU216HW,2013-04-27 14:46:00,
2013-04-27 07:51:00,51.3,48.4,30.32,North,0,0.0,0.0,90,0.00,,,0.00,WUHU216HW,2013-04-27 14:51:00,
2013-04-27 07:56:00,51.3,48.4,30.32,North,0,0.0,0.0,90,0.00,,,0.00,WUHU216HW,2013-04-27 14:56:00,
2013-04-27 08:01:00,51.5,48.6,30.31,North,0,0.0,0.0,90,0.00,,,0.00,WUHU216HW,2013-04-27 15:01:00,
2013-04-27 08:06:00,51.7,48.5,30.32,North,0,0.0,0.0,89,0.00,,,0.00,WUHU216HW,2013-04-27 15:06:00,
2013-04-27 08:11:00,51.8,49.0,30.32,North,0,0.0,0.0,90,0.00,,,0.00,WUHU216HW,2013-04-27 15:11:00,
2013-04-27 08:16:00,52.2,49.3,30.32,North,0,0.0,0.0,90,0.00,,,0.00,WUHU216HW,2013-04-27 15:16:00,
2013-04-27 08:21:00,52.7,49.9,30.31,North,0,0.0,0.0,90,0.00,,,0.00,WUHU216HW,2013-04-27 15:21:00,
2013-04-27 08:26:00,53.1,50.0,30.32,North,0,0.0,0.0,89,0.00,,,0.00,WUHU216HW,2013-04-27 15:26:00,
2013-04-27 08:31:00,53.5,50.3,30.32,North,0,0.0,0.0,89,0.00,,,0.00,WUHU216HW,2013-04-27 15:31:00,
2013-04-27 08:36:00,53.8,50.7,30.32,North,0,0.0,0.0,89,0.00,,,0.00,WUHU216HW,2013-04-27 15:36:00,
2013-04-27 08:41:00,54.7,50.9,30.32,North,0,0.0,0.0,87,0.00,,,0.00,WUHU216HW,2013-04-27 15:41:00,
2013-04-27 08:46:00,55.1,51.0,30.31,North,0,0.0,0.0,86,0.00,,,0.00,WUHU216HW,2013-04-27 15:46:00,
2013-04-27 08:51:00,55.3,51.1,30.31,North,0,0.0,0.0,86,0.00,,,0.00,WUHU216HW,2013-04-27 15:51:00,
2013-04-27 08:56:00,56.5,52.4,30.31,North,0,0.0,0.0,86,0.00,,,0.00,WUHU216HW,2013-04-27 15:56:00,
2013-04-27 09:01:00,58.7,54.2,30.31,North,0,0.0,0.0,85,0.00,,,0.00,WUHU216HW,2013-04-27 16:01:00,
2013-04-27 09:06:00,61.2,54.7,30.31,North,0,0.0,0.0,79,0.00,,,0.00,WUHU216HW,2013-04-27 16:06:00,
2013-04-27 09:11:00,62.5,54.4,30.31,North,0,0.0,0.0,75,0.00,,,0.00,WUHU216HW,2013-04-27 16:11:00,
2013-04-27 09:16:00,63.4,56.0,30.31,North,0,0.0,0.0,77,0.00,,,0.00,WUHU216HW,2013-04-27 16:16:00,
2013-04-27 09:21:00,64.8,56.4,30.31,North,0,0.0,0.0,74,0.00,,,0.00,WUHU216HW,2013-04-27 16:21:00,
2013-04-27 09:26:00,67.0,58.8,30.31,North,0,0.0,0.0,75,0.00,,,0.00,WUHU216HW,2013-04-27 16:26:00,
2013-04-27 09:31:00,68.8,59.8,30.31,North,0,0.0,0.0,73,0.00,,,0.00,WUHU216HW,2013-04-27 16:31:00,
2013-04-27 09:36:00,70.4,60.1,30.31,North,0,0.0,0.0,70,0.00,,,0.00,WUHU216HW,2013-04-27 16:36:00,
2013-04-27 09:41:00,71.8,60.7,30.31,North,0,0.0,0.0,68,0.00,,,0.00,WUHU216HW,2013-04-27 16:41:00,
2013-04-27 09:46:00,72.4,60.3,30.31,North,0,0.0,0.0,66,0.00,,,0.00,WUHU216HW,2013-04-27 16:46:00,
2013-04-27 09:51:00,73.8,60.9,30.31,North,0,0.0,0.0,64,0.00,,,0.00,WUHU216HW,2013-04-27 16:51:00,
2013-04-27 09:56:00,73.4,59.6,30.30,North,0,0.0,0.0,62,0.00,,,0.00,WUHU216HW,2013-04-27 16:56:00,
2013-04-27 10:01:00,73.1,57.3,30.30,North,0,0.0,0.0,58,0.00,,,0.00,WUHU216HW,2013-04-27 17:01:00,
2013-04-27 10:06:00,72.7,56.5,30.30,North,0,0.0,0.0,57,0.00,,,0.00,WUHU216HW,2013-04-27 17:06:00,
2013-04-27 10:11:00,72.0,56.9,30.30,North,0,0.0,0.0,59,0.00,,,0.00,WUHU216HW,2013-04-27 17:11:00,
2013-04-27 10:16:00,72.4,57.3,30.30,North,0,0.0,0.0,59,0.00,,,0.00,WUHU216HW,2013-04-27 17:16:00,
2013-04-27 10:21:00,71.6,57.1,30.30,North,0,0.0,0.0,60,0.00,,,0.00,WUHU216HW,2013-04-27 17:21:00,
2013-04-27 10:26:00,73.1,57.3,30.30,North,0,0.0,0.0,58,0.00,,,0.00,WUHU216HW,2013-04-27 17:26:00,
2013-04-27 10:31:00,73.6,57.9,30.30,North,0,0.0,0.0,58,0.00,,,0.00,WUHU216HW,2013-04-27 17:31:00,
2013-04-27 10:36:00,73.4,57.7,30.31,North,0,0.0,0.0,58,0.00,,,0.00,WUHU216HW,2013-04-27 17:36:00,
2013-04-27 10:41:00,74.2,58.9,30.31,North,0,0.0,0.0,59,0.00,,,0.00,WUHU216HW,2013-04-27 17:41:00,
2013-04-27 10:46:00,74.9,58.6,30.31,North,0,0.0,0.0,57,0.00,,,0.00,WUHU216HW,2013-04-27 17:46:00,
2013-04-27 10:51:00,73.8,57.5,30.31,North,0,0.0,0.0,57,0.00,,,0.00,WUHU216HW,2013-04-27 17:51:00,
2013-04-27 10:56:00,74.0,57.3,30.30,North,0,0.0,0.0,56,0.00,,,0.00,WUHU216HW,2013-04-27 17:56:00,
2013-04-27 11:01:00,73.8,57.5,30.31,North,0,0.0,0.0,57,0.00,,,0.00,WUHU216HW,2013-04-27 18:01:00,
2013-04-27 11:06:00,73.8,57.5,30.31,North,0,0.0,0.0,57,0.00,,,0.00,WUHU216HW,2013-04-27 18:06:00,
2013-04-27 11:11:00,73.4,56.7,30.31,North,0,0.0,0.0,56,0.00,,,0.00,WUHU216HW,2013-04-27 18:11:00,
2013-04-27 11:16:00,72.5,56.9,30.31,North,0,0.0,0.0,58,0.00,,,0.00,WUHU216HW,2013-04-27 18:16:00,
2013-04-27 11:21:00,71.5,55.9,30.31,North,0,0.0,0.0,58,0.00,,,0.00,WUHU216HW,2013-04-27 18:21:00,
2013-04-27 11:26:00,70.9,55.9,30.31,North,0,0.0,0.0,59,0.00,,,0.00,WUHU216HW,2013-04-27 18:26:00,
2013-04-27 11:31:00,70.4,54.9,30.31,North,0,0.0,0.0,58,0.00,,,0.00,WUHU216HW,2013-04-27 18:31:00,
2013-04-27 11:36:00,68.8,53.9,30.31,North,0,0.0,0.0,59,0.00,,,0.00,WUHU216HW,2013-04-27 18:36:00,
2013-04-27 11:41:00,67.3,53.0,30.31,North,0,0.0,0.0,60,0.00,,,0.00,WUHU216HW,2013-04-27 18:41:00,
2013-04-27 11:46:00,66.6,53.2,30.31,North,0,0.0,0.0,62,0.00,,,0.00,WUHU216HW,2013-04-27 18:46:00,
2013-04-27 11:51:00,66.6,53.7,30.31,North,0,0.0,0.0,63,0.00,,,0.00,WUHU216HW,2013-04-27 18:51:00,
2013-04-27 11:56:00,65.9,52.9,30.31,North,0,0.0,0.0,63,0.00,,,0.00,WUHU216HW,2013-04-27 18:56:00,
2013-04-27 12:01:00,65.5,53.0,30.31,North,0,0.0,0.0,64,0.00,,,0.00,WUHU216HW,2013-04-27 19:01:00,
2013-04-27 12:06:00,64.8,51.8,30.31,North,0,0.0,0.0,63,0.00,,,0.00,WUHU216HW,2013-04-27 19:06:00,
2013-04-27 12:11:00,63.9,51.8,30.31,North,0,0.0,0.0,65,0.00,,,0.00,WUHU216HW,2013-04-27 19:11:00,
2013-04-27 12:16:00,63.5,51.6,30.31,North,0,0.0,0.0,65,0.00,,,0.00,WUHU216HW,2013-04-27 19:16:00,
2013-04-27 12:21:00,62.6,51.5,30.31,North,0,0.0,0.0,67,0.00,,,0.00,WUHU216HW,2013-04-27 19:21:00,
2013-04-27 12:26:00,63.0,51.8,30.31,North,0,0.0,0.0,67,0.00,,,0.00,WUHU216HW,2013-04-27 19:26:00,
2013-04-27 12:31:00,62.8,51.7,30.30,North,0,0.0,0.0,67,0.00,,,0.00,WUHU216HW,2013-04-27 19:31:00,
2013-04-27 12:36:00,62.8,51.3,30.30,North,0,0.0,0.0,66,0.00,,,0.00,WUHU216HW,2013-04-27 19:36:00,
2013-04-27 12:41:00,62.5,51.3,30.30,North,0,0.0,0.0,67,0.00,,,0.00,WUHU216HW,2013-04-27 19:41:00,
2013-04-27 12:46:00,62.8,51.7,30.30,North,0,0.0,0.0,67,0.00,,,0.00,WUHU216HW,2013-04-27 19:46:00,
2013-04-27 12:51:00,63.0,51.4,30.30,North,0,0.0,0.0,66,0.00,,,0.00,WUHU216HW,2013-04-27 19:51:00,
2013-04-27 12:56:00,62.6,51.5,30.30,North,0,0.0,0.0,67,0.00,,,0.00,WUHU216HW,2013-04-27 19:56:00,
2013-04-27 13:01:00,63.0,51.8,30.29,North,0,0.0,0.0,67,0.00,,,0.00,WUHU216HW,2013-04-27 20:01:00,
2013-04-27 13:06:00,63.0,51.4,30.29,North,0,0.0,0.0,66,0.00,,,0.00,WUHU216HW,2013-04-27 20:06:00,
2013-04-27 13:11:00,62.3,51.2,30.29,North,0,0.0,0.0,67,0.00,,,0.00,WUHU216HW,2013-04-27 20:11:00,
2013-04-27 13:16:00,62.6,51.9,30.29,North,0,0.0,0.0,68,0.00,,,0.00,WUHU216HW,2013-04-27 20:16:00,
2013-04-27 13:21:00,63.0,51.8,30.29,North,0,0.0,0.0,67,0.00,,,0.00,WUHU216HW,2013-04-27 20:21:00,
2013-04-27 13:26:00,62.6,51.9,30.29,North,0,0.0,0.0,68,0.00,,,0.00,WUHU216HW,2013-04-27 20:26:00,
2013-04-27 13:31:00,62.6,51.5,30.29,North,0,0.0,0.0,67,0.00,,,0.00,WUHU216HW,2013-04-27 20:31:00,
2013-04-27 13:36:00,62.3,52.0,30.29,North,0,0.0,0.0,69,0.00,,,0.00,WUHU216HW,2013-04-27 20:36:00,
2013-04-27 13:41:00,62.8,52.5,30.29,North,0,0.0,0.0,69,0.00,,,0.00,WUHU216HW,2013-04-27 20:41:00,
2013-04-27 13:46:00,62.8,52.1,30.29,North,0,0.0,0.0,68,0.00,,,0.00,WUHU216HW,2013-04-27 20:46:00,
2013-04-27 13:52:00,62.8,52.1,30.28,North,0,0.0,0.0,68,0.00,,,0.00,WUHU216HW,2013-04-27 20:52:00,
2013-04-27 13:57:00,62.6,51.9,30.28,North,0,0.0,0.0,68,0.00,,,0.00,WUHU216HW,2013-04-27 20:57:00,
2013-04-27 14:02:00,62.3,51.6,30.28,North,0,0.0,0.0,68,0.00,,,0.00,WUHU216HW,2013-04-27 21:02:00,
2013-04-27 14:07:00,62.5,52.6,30.28,North,0,0.0,0.0,70,0.00,,,0.00,WUHU216HW,2013-04-27 21:07:00,
2013-04-27 14:12:00,63.0,52.3,30.27,North,0,0.0,0.0,68,0.00,,,0.00,WUHU216HW,2013-04-27 21:12:00,
2013-04-27 14:17:00,63.2,52.8,30.27,North,0,0.0,0.0,69,0.00,,,0.00,WUHU216HW,2013-04-27 21:17:00,
2013-04-27 14:22:00,63.5,51.9,30.27,North,0,0.0,0.0,66,0.00,,,0.00,WUHU216HW,2013-04-27 21:22:00,
2013-04-27 14:27:00,63.0,51.8,30.27,North,0,0.0,0.0,67,0.00,,,0.00,WUHU216HW,2013-04-27 21:27:00,
2013-04-27 14:32:00,62.1,51.8,30.27,North,0,0.0,0.0,69,0.00,,,0.00,WUHU216HW,2013-04-27 21:32:00,
2013-04-27 14:37:00,62.1,51.8,30.27,North,0,0.0,0.0,69,0.00,,,0.00,WUHU216HW,2013-04-27 21:37:00,
2013-04-27 14:42:00,62.3,52.4,30.27,North,0,0.0,0.0,70,0.00,,,0.00,WUHU216HW,2013-04-27 21:42:00,
2013-04-27 14:47:00,61.7,51.5,30.27,North,0,0.0,0.0,69,0.00,,,0.00,WUHU216HW,2013-04-27 21:47:00,
2013-04-27 14:52:00,62.3,52.0,30.26,North,0,0.0,0.0,69,0.00,,,0.00,WUHU216HW,2013-04-27 21:52:00,
2013-04-27 14:57:00,62.6,52.3,30.26,North,0,0.0,0.0,69,0.00,,,0.00,WUHU216HW,2013-04-27 21:57:00,
2013-04-27 15:02:00,63.0,52.3,30.26,North,0,0.0,0.0,68,0.00,,,0.00,WUHU216HW,2013-04-27 22:02:00,
2013-04-27 15:07:00,63.0,52.3,30.26,North,0,0.0,0.0,68,0.00,,,0.00,WUHU216HW,2013-04-27 22:07:00,
2013-04-27 15:12:00,62.8,52.1,30.26,North,0,0.0,0.0,68,0.00,,,0.00,WUHU216HW,2013-04-27 22:12:00,
2013-04-27 15:17:00,62.6,52.3,30.26,North,0,0.0,0.0,69,0.00,,,0.00,WUHU216HW,2013-04-27 22:17:00,
2013-04-27 15:22:00,63.0,52.3,30.26,North,0,0.0,0.0,68,0.00,,,0.00,WUHU216HW,2013-04-27 22:22:00,
2013-04-27 15:27:00,62.8,52.1,30.26,North,0,0.0,0.0,68,0.00,,,0.00,WUHU216HW,2013-04-27 22:27:00,
2013-04-27 15:32:00,62.1,51.8,30.25,North,0,0.0,0.0,69,0.00,,,0.00,WUHU216HW,2013-04-27 22:32:00,
2013-04-27 15:37:00,62.3,52.0,30.25,North,0,0.0,0.0,69,0.00,,,0.00,WUHU216HW,2013-04-27 22:37:00,
2013-04-27 15:42:00,62.5,52.2,30.25,North,0,0.0,0.0,69,0.00,,,0.00,WUHU216HW,2013-04-27 22:42:00,
2013-04-27 15:47:00,62.6,52.3,30.25,North,0,0.0,0.0,69,0.00,,,0.00,WUHU216HW,2013-04-27 22:47:00,
2013-04-27 15:52:00,62.8,51.7,30.25,North,0,0.0,0.0,67,0.00,,,0.00,WUHU216HW,2013-04-27 22:52:00,
2013-04-27 15:57:00,62.6,51.9,30.24,North,0,0.0,0.0,68,0.00,,,0.00,WUHU216HW,2013-04-27 22:57:00,
2013-04-27 16:02:00,62.1,51.8,30.24,North,0,0.0,0.0,69,0.00,,,0.00,WUHU216HW,2013-04-27 23:02:00,
2013-04-27 16:07:00,61.6,51.4,30.24,North,0,0.0,0.0,69,0.00,,,0.00,WUHU216HW,2013-04-27 23:07:00,
2013-04-27 16:12:00,61.9,51.7,30.24,North,0,0.0,0.0,69,0.00,,,0.00,WUHU216HW,2013-04-27 23:12:00,
2013-04-27 16:17:00,61.7,51.5,30.24,North,0,0.0,0.0,69,0.00,,,0.00,WUHU216HW,2013-04-27 23:17:00,
2013-04-27 16:22:00,60.5,50.3,30.24,North,0,0.0,0.0,69,0.00,,,0.00,WUHU216HW,2013-04-27 23:22:00,
2013-04-27 16:27:00,59.6,50.6,30.24,North,0,0.0,0.0,72,0.00,,,0.00,WUHU216HW,2013-04-27 23:27:00,
2013-04-27 16:32:00,59.4,50.8,30.24,North,0,0.0,0.0,73,0.00,,,0.00,WUHU216HW,2013-04-27 23:32:00,
2013-04-27 16:37:00,59.4,50.8,30.23,North,0,0.0,0.0,73,0.00,,,0.00,WUHU216HW,2013-04-27 23:37:00,
2013-04-27 16:42:00,59.6,50.9,30.24,North,0,0.0,0.0,73,0.00,,,0.00,WUHU216HW,2013-04-27 23:42:00,
2013-04-27 16:47:00,59.0,50.8,30.23,North,0,0.0,0.0,74,0.00,,,0.00,WUHU216HW,2013-04-27 23:47:00,
2013-04-27 16:52:00,58.9,50.6,30.23,North,0,0.0,0.0,74,0.00,,,0.00,WUHU216HW,2013-04-27 23:52:00,
2013-04-27 16:57:00,58.7,50.8,30.23,North,0,0.0,0.0,75,0.00,,,0.00,WUHU216HW,2013-04-27 23:57:00,
2013-04-27 17:02:00,57.8,50.2,30.23,North,0,0.0,0.0,76,0.00,,,0.00,WUHU216HW,2013-04-28 00:02:00,
2013-04-27 17:07:00,57.4,50.2,30.23,North,0,0.0,0.0,77,0.00,,,0.00,WUHU216HW,2013-04-28 00:07:00,
2013-04-27 17:12:00,57.2,50.4,30.23,North,0,0.0,0.0,78,0.00,,,0.00,WUHU216HW,2013-04-28 00:12:00,
2013-04-27 17:17:00,57.2,50.4,30.23,North,0,0.0,0.0,78,0.00,,,0.00,WUHU216HW,2013-04-28 00:17:00,
2013-04-27 17:22:00,57.2,50.4,30.23,North,0,0.0,0.0,78,0.00,,,0.00,WUHU216HW,2013-04-28 00:22:00,
2013-04-27 17:27:00,56.9,50.4,30.23,North,0,0.0,0.0,79,0.00,,,0.00,WUHU216HW,2013-04-28 00:27:00,
2013-04-27 17:32:00,56.7,50.2,30.23,North,0,0.0,0.0,79,0.00,,,0.00,WUHU216HW,2013-04-28 00:32:00,
2013-04-27 17:37:00,56.7,50.2,30.23,North,0,0.0,0.0,79,0.00,,,0.00,WUHU216HW,2013-04-28 00:37:00,
2013-04-27 17:42:00,56.0,49.9,30.23,North,0,0.0,0.0,80,0.00,,,0.00,WUHU216HW,2013-04-28 00:42:00,
2013-04-27 17:47:00,56.0,50.2,30.23,North,0,0.0,0.0,81,0.00,,,0.00,WUHU216HW,2013-04-28 00:47:00,
2013-04-27 17:52:00,55.8,50.1,30.22,North,0,0.0,0.0,81,0.00,,,0.00,WUHU216HW,2013-04-28 00:52:00,
2013-04-27 17:57:00,55.4,49.3,30.22,North,0,0.0,0.0,80,0.00,,,0.00,WUHU216HW,2013-04-28 00:57:00,
2013-04-27 18:02:00,54.9,49.5,30.22,North,0,0.0,0.0,82,0.00,,,0.00,WUHU216HW,2013-04-28 01:02:00,
2013-04-27 18:07:00,54.4,49.0,30.22,North,0,0.0,0.0,82,0.00,,,0.00,WUHU216HW,2013-04-28 01:07:00,
2013-04-27 18:12:00,53.6,49.0,30.22,North,0,0.0,0.0,84,0.00,,,0.00,WUHU216HW,2013-04-28 01:12:00,
2013-04-27 18:17:00,53.5,49.1,30.22,North,0,0.0,0.0,85,0.00,,,0.00,WUHU216HW,2013-04-28 01:17:00,
2013-04-27 18:22:00,53.3,49.1,30.22,North,0,0.0,0.0,86,0.00,,,0.00,WUHU216HW,2013-04-28 01:22:00,
2013-04-27 18:27:00,53.1,49.0,30.22,North,0,0.0,0.0,86,0.00,,,0.00,WUHU216HW,2013-04-28 01:27:00,
2013-04-27 18:32:00,52.9,49.2,30.21,North,0,0.0,0.0,87,0.00,,,0.00,WUHU216HW,2013-04-28 01:32:00,
2013-04-27 18:37:00,52.7,49.0,30.21,North,0,0.0,0.0,87,0.00,,,0.00,WUHU216HW,2013-04-28 01:37:00,
2013-04-27 18:42:00,52.4,48.9,30.21,North,0,0.0,0.0,88,0.00,,,0.00,WUHU216HW,2013-04-28 01:42:00,
2013-04-27 18:47:00,52.2,48.7,30.21,North,0,0.0,0.0,88,0.00,,,0.00,WUHU216HW,2013-04-28 01:47:00,
2013-04-27 18:52:00,52.2,49.1,30.21,North,0,0.0,0.0,89,0.00,,,0.00,WUHU216HW,2013-04-28 01:52:00,
2013-04-27 18:57:00,51.8,48.7,30.21,North,0,0.0,0.0,89,0.00,,,0.00,WUHU216HW,2013-04-28 01:57:00,
2013-04-27 19:02:00,51.7,48.8,30.21,North,0,0.0,0.0,90,0.00,,,0.00,WUHU216HW,2013-04-28 02:02:00,
2013-04-27 19:07:00,51.5,48.3,30.21,North,0,0.0,0.0,89,0.00,,,0.00,WUHU216HW,2013-04-28 02:07:00,
2013-04-27 19:12:00,51.5,48.3,30.21,North,0,0.0,0.0,89,0.00,,,0.00,WUHU216HW,2013-04-28 02:12:00,
2013-04-27 19:17:00,51.3,48.4,30.21,North,0,0.0,0.0,90,0.00,,,0.00,WUHU216HW,2013-04-28 02:17:00,
2013-04-27 19:22:00,51.1,48.2,30.21,North,0,0.0,0.0,90,0.00,,,0.00,WUHU216HW,2013-04-28 02:22:00,
2013-04-27 19:27:00,51.1,48.2,30.21,North,0,0.0,0.0,90,0.00,,,0.00,WUHU216HW,2013-04-28 02:27:00,
2013-04-27 19:32:00,50.9,48.3,30.21,North,0,0.0,0.0,91,0.00,,,0.00,WUHU216HW,2013-04-28 02:32:00,
2013-04-27 19:37:00,50.8,48.2,30.20,North,0,0.0,0.0,91,0.00,,,0.00,WUHU216HW,2013-04-28 02:37:00,
2013-04-27 19:42:00,50.8,48.2,30.20,North,0,0.0,0.0,91,0.00,,,0.00,WUHU216HW,2013-04-28 02:42:00,
2013-04-27 19:47:00,50.8,48.2,30.20,North,0,0.0,0.0,91,0.00,,,0.00,WUHU216HW,2013-04-28 02:47:00,
2013-04-27 19:52:00,50.6,48.0,30.20,North,0,0.0,0.0,91,0.00,,,0.00,WUHU216HW,2013-04-28 02:52:00,
2013-04-27 19:57:00,50.4,47.8,30.20,North,0,0.0,0.0,91,0.00,,,0.00,WUHU216HW,2013-04-28 02:57:00,
2013-04-27 20:02:00,50.4,47.8,30.20,North,0,0.0,0.0,91,0.00,,,0.00,WUHU216HW,2013-04-28 03:02:00,
2013-04-27 20:07:00,50.4,47.8,30.20,North,0,0.0,0.0,91,0.00,,,0.00,WUHU216HW,2013-04-28 03:07:00,
2013-04-27 20:12:00,50.2,47.6,30.20,North,0,0.0,0.0,91,0.00,,,0.00,WUHU216HW,2013-04-28 03:12:00,
2013-04-27 20:17:00,50.2,47.9,30.20,North,0,0.0,0.0,92,0.00,,,0.00,WUHU216HW,2013-04-28 03:17:00,
2013-04-27 20:22:00,50.0,47.4,30.20,North,0,0.0,0.0,91,0.00,,,0.00,WUHU216HW,2013-04-28 03:22:00,
2013-04-27 20:27:00,50.0,47.4,30.20,North,0,0.0,0.0,91,0.00,,,0.00,WUHU216HW,2013-04-28 03:27:00,
2013-04-27 20:32:00,49.9,47.6,30.20,North,0,0.0,0.0,92,0.00,,,0.00,WUHU216HW,2013-04-28 03:32:00,
2013-04-27 20:37:00,49.9,47.6,30.20,North,0,0.0,0.0,92,0.00,,,0.00,WUHU216HW,2013-04-28 03:37:00,
2013-04-27 20:42:00,49.9,47.6,30.20,North,0,0.0,0.0,92,0.00,,,0.00,WUHU216HW,2013-04-28 03:42:00,
2013-04-27 20:47:00,49.7,47.4,30.20,North,0,0.0,0.0,92,0.00,,,0.00,WUHU216HW,2013-04-28 03:47:00,
2013-04-27 20:52:00,49.7,47.4,30.21,North,0,0.0,0.0,92,0.00,,,0.00,WUHU216HW,2013-04-28 03:52:00,
2013-04-27 20:57:00,49.5,47.3,30.20,North,0,0.0,0.0,92,0.00,,,0.00,WUHU216HW,2013-04-28 03:57:00,
2013-04-27 21:02:00,49.5,47.3,30.21,North,0,0.0,0.0,92,0.00,,,0.00,WUHU216HW,2013-04-28 04:02:00,
2013-04-27 21:07:00,49.5,47.5,30.21,North,0,0.0,0.0,93,0.00,,,0.00,WUHU216HW,2013-04-28 04:07:00,
2013-04-27 21:12:00,49.5,47.5,30.21,North,0,0.0,0.0,93,0.00,,,0.00,WUHU216HW,2013-04-28 04:12:00,
2013-04-27 21:17:00,49.5,47.3,30.21,North,0,0.0,0.0,92,0.00,,,0.00,WUHU216HW,2013-04-28 04:17:00,
2013-04-27 21:22:00,49.5,47.5,30.21,North,0,0.0,0.0,93,0.00,,,0.00,WUHU216HW,2013-04-28 04:22:00,
2013-04-27 21:27:00,49.5,47.5,30.21,North,0,0.0,0.0,93,0.00,,,0.00,WUHU216HW,2013-04-28 04:27:00,
2013-04-27 21:32:00,49.5,47.5,30.21,North,0,0.0,0.0,93,0.00,,,0.00,WUHU216HW,2013-04-28 04:32:00,
2013-04-27 21:37:00,49.3,47.3,30.21,North,0,0.0,0.0,93,0.00,,,0.00,WUHU216HW,2013-04-28 04:37:00,
2013-04-27 21:42:00,49.5,47.8,30.21,North,0,0.0,0.0,94,0.00,,,0.00,WUHU216HW,2013-04-28 04:42:00,
2013-04-27 21:47:00,49.5,47.5,30.21,North,0,0.0,0.0,93,0.00,,,0.00,WUHU216HW,2013-04-28 04:47:00,
2013-04-27 21:52:00,49.5,47.5,30.21,North,0,0.0,0.0,93,0.00,,,0.00,WUHU216HW,2013-04-28 04:52:00,
2013-04-27 21:57:00,49.7,47.7,30.21,North,0,0.0,0.0,93,0.00,,,0.00,WUHU216HW,2013-04-28 04:57:00,
2013-04-27 22:02:00,49.5,47.5,30.21,North,0,0.0,0.0,93,0.00,,,0.00,WUHU216HW,2013-04-28 05:02:00,
2013-04-27 22:07:00,49.5,47.5,30.21,North,0,0.0,0.0,93,0.00,,,0.00,WUHU216HW,2013-04-28 05:07:00,
2013-04-27 22:12:00,49.5,47.5,30.21,North,0,0.0,0.0,93,0.00,,,0.00,WUHU216HW,2013-04-28 05:12:00,
2013-04-27 22:17:00,49.5,47.5,30.21,North,0,0.0,0.0,93,0.00,,,0.00,WUHU216HW,2013-04-28 05:17:00,
2013-04-27 22:22:00,49.3,47.3,30.21,North,0,0.0,0.0,93,0.00,,,0.00,WUHU216HW,2013-04-28 05:22:00,
2013-04-27 22:27:00,49.3,47.3,30.21,North,0,0.0,0.0,93,0.00,,,0.00,WUHU216HW,2013-04-28 05:27:00,
2013-04-27 22:32:00,49.3,47.3,30.21,North,0,0.0,0.0,93,0.00,,,0.00,WUHU216HW,2013-04-28 05:32:00,
2013-04-27 22:37:00,49.1,47.2,30.21,North,0,0.0,0.0,93,0.00,,,0.00,WUHU216HW,2013-04-28 05:37:00,
2013-04-27 22:42:00,49.1,47.2,30.21,North,0,0.0,0.0,93,0.00,,,0.00,WUHU216HW,2013-04-28 05:42:00,
2013-04-27 22:47:00,49.1,47.2,30.21,North,0,0.0,0.0,93,0.00,,,0.00,WUHU216HW,2013-04-28 05:47:00,
2013-04-27 22:52:00,49.0,47.0,30.20,North,0,0.0,0.0,93,0.00,,,0.00,WUHU216HW,2013-04-28 05:52:00,
2013-04-27 22:57:00,49.0,47.0,30.20,North,0,0.0,0.0,93,0.00,,,0.00,WUHU216HW,2013-04-28 05:57:00,
2013-04-27 23:02:00,49.0,47.0,30.20,North,0,0.0,0.0,93,0.00,,,0.00,WUHU216HW,2013-04-28 06:02:00,
2013-04-27 23:07:00,48.8,46.9,30.20,North,0,0.0,0.0,93,0.00,,,0.00,WUHU216HW,2013-04-28 06:07:00,
2013-04-27 23:12:00,48.6,46.7,30.20,North,0,0.0,0.0,93,0.00,,,0.00,WUHU216HW,2013-04-28 06:12:00,
2013-04-27 23:17:00,48.6,46.7,30.20,North,0,0.0,0.0,93,0.00,,,0.00,WUHU216HW,2013-04-28 06:17:00,
2013-04-27 23:22:00,48.6,46.7,30.20,North,0,0.0,0.0,93,0.00,,,0.00,WUHU216HW,2013-04-28 06:22:00,
2013-04-27 23:27:00,48.4,46.5,30.20,North,0,0.0,0.0,93,0.00,,,0.00,WUHU216HW,2013-04-28 06:27:00,
2013-04-27 23:32:00,48.4,46.5,30.20,North,0,0.0,0.0,93,0.00,,,0.00,WUHU216HW,2013-04-28 06:32:00,
2013-04-27 23:37:00,48.4,46.5,30.19,North,0,0.0,0.0,93,0.00,,,0.00,WUHU216HW,2013-04-28 06:37:00,
2013-04-27 23:42:00,48.4,46.5,30.19,North,0,0.0,0.0,93,0.00,,,0.00,WUHU216HW,2013-04-28 06:42:00,
2013-04-27 23:47:00,48.4,46.5,30.19,North,0,0.0,0.0,93,0.00,,,0.00,WUHU216HW,2013-04-28 06:47:00,
2013-04-27 23:52:00,48.4,46.5,30.19,North,0,0.0,0.0,93,0.00,,,0.00,WUHU216HW,2013-04-28 06:52:00,
2013-04-27 23:57:00,48.2,46.4,30.19,North,0,0.0,0.0,93,0.00,,,0.00,WUHU216HW,2013-04-28 06:57:00,